Terminal Aerodrome Forecast
Issued by NWS Tampa Bay Area, FL

Home | Current Version | Previous Version | Text Only | Print | Product List | Glossary On
Versions: 1 2 3 4 5 6 7 8 9 10 11 12 13 14 15
000
FTUS42 KTBW 242324
TAFFMY
TAF
KFMY 242324Z 2500/2524 12004KT P6SM VCSH SCT040 BKN100
      TEMPO 2500/2502 4SM SHRA BKN040
     FM250400 10004KT P6SM SCT250
     FM251500 06005KT P6SM SCT035 SCT250
     FM251900 32007KT P6SM VCTS SCT040CB SCT250=

USA.gov is the U.S. government's official web portal to all federal, state and local government web resources and services.